Chorlton, United Kingdom
Current Conditions -  °F | °C
As of 8:50 AM on Tuesday 21 Oct 2014 (Local Time) from EGOS Reporting Station
Few Clouds Few Clouds  
Wind Chill: 50°   Ceiling: Unl
Heat Index: 50°   Visibility: 6mi
Dew Point: 39°   Wind: 20mph
Humidity: 66%   Direction: 260°W
Pressure: 29.53"   Gusts: NA
Location:  53.05°N, 2.41°W
Report Text: EGOS 210750Z 26017KT 9999 FEW025 10/04 Q1000 BLU NOSIG
Loading
Personal Weather Stations






























Interactive Weather Map
Tropical Storm Tracking
New forecast layout! Learn more

10-Day Weather Forecast

Advertisements
Track Severe Weather on mobile